Terminal Aerodrome Forecast
Issued by NWS St Louis, MO

Home | Current Version | Previous Version | Text Only | Print | Product List | Glossary On
Versions: 1 2 3 4 5 6 7 8 9 10 11 12 13 14 15 16 17 18 19 20 21 22 23 24 25 26 27 28 29 30 31
829
FTUS43 KLSX 181140
TAFSTL
TAF
KSTL 181140Z 1812/1918 15008KT P6SM SKC
     FM181600 15010G20KT P6SM SCT250
     FM190400 18010KT P6SM BKN100 WS020/22045KT
     FM190600 18010KT 5SM -SHRA OVC030 WS020/22045KT
     FM191500 19015G25KT 6SM -SHRA OVC030=

USA.gov is the U.S. government's official web portal to all federal, state and local government web resources and services.